sensor_id;sensor_type;location;lat;lon;timestamp;temperature;humidity
11772;DHT22;12556;55.748;13.194;2022-12-18T00:01:38;-1.20;99.90
11772;DHT22;12556;55.748;13.194;2022-12-18T00:04:06;-1.20;99.90
11772;DHT22;12556;55.748;13.194;2022-12-18T00:06:34;-1.20;99.90
11772;DHT22;12556;55.748;13.194;2022-12-18T00:09:02;-1.20;99.90
11772;DHT22;12556;55.748;13.194;2022-12-18T00:11:31;-1.20;99.90
11772;DHT22;12556;55.748;13.194;2022-12-18T00:13:59;-1.20;99.90
11772;DHT22;12556;55.748;13.194;2022-12-18T00:16:27;-1.20;99.90
11772;DHT22;12556;55.748;13.194;2022-12-18T00:18:57;-1.20;99.90
11772;DHT22;12556;55.748;13.194;2022-12-18T00:21:26;-1.20;99.90
11772;DHT22;12556;55.748;13.194;2022-12-18T00:23:53;-1.30;99.90
11772;DHT22;12556;55.748;13.194;2022-12-18T00:26:22;-1.20;99.90
11772;DHT22;12556;55.748;13.194;2022-12-18T00:28:51;-1.30;99.90
11772;DHT22;12556;55.748;13.194;2022-12-18T00:31:20;-1.30;99.90
11772;DHT22;12556;55.748;13.194;2022-12-18T00:33:47;-1.30;99.90
11772;DHT22;12556;55.748;13.194;2022-12-18T00:36:18;-1.30;99.90
11772;DHT22;12556;55.748;13.194;2022-12-18T00:38:46;-1.30;99.90
11772;DHT22;12556;55.748;13.194;2022-12-18T00:41:15;-1.30;99.90
11772;DHT22;12556;55.748;13.194;2022-12-18T00:44:03;-1.40;99.90
11772;DHT22;12556;55.748;13.194;2022-12-18T00:46:29;-1.30;99.90
11772;DHT22;12556;55.748;13.194;2022-12-18T00:48:56;-1.30;99.90
11772;DHT22;12556;55.748;13.194;2022-12-18T00:51:24;-1.30;99.90
11772;DHT22;12556;55.748;13.194;2022-12-18T00:53:52;-1.30;99.90
11772;DHT22;12556;55.748;13.194;2022-12-18T00:56:22;-1.30;99.90
11772;DHT22;12556;55.748;13.194;2022-12-18T00:58:50;-1.30;99.90
11772;DHT22;12556;55.748;13.194;2022-12-18T01:01:17;-1.30;99.90
11772;DHT22;12556;55.748;13.194;2022-12-18T01:03:44;-1.30;99.90
11772;DHT22;12556;55.748;13.194;2022-12-18T01:06:13;-1.30;99.90
11772;DHT22;12556;55.748;13.194;2022-12-18T01:08:43;-1.30;99.90
11772;DHT22;12556;55.748;13.194;2022-12-18T01:11:12;-1.30;99.90
11772;DHT22;12556;55.748;13.194;2022-12-18T01:13:39;-1.30;99.90
11772;DHT22;12556;55.748;13.194;2022-12-18T01:16:07;-1.30;99.90
11772;DHT22;12556;55.748;13.194;2022-12-18T01:18:34;-1.30;99.90
11772;DHT22;12556;55.748;13.194;2022-12-18T01:21:06;-1.40;99.90
11772;DHT22;12556;55.748;13.194;2022-12-18T01:23:33;-1.40;99.90
11772;DHT22;12556;55.748;13.194;2022-12-18T01:26:06;-1.40;99.90
11772;DHT22;12556;55.748;13.194;2022-12-18T01:28:33;-1.40;99.90
11772;DHT22;12556;55.748;13.194;2022-12-18T01:31:10;-1.40;99.90
11772;DHT22;12556;55.748;13.194;2022-12-18T01:33:37;-1.40;99.90
11772;DHT22;12556;55.748;13.194;2022-12-18T01:36:04;-1.40;99.90
11772;DHT22;12556;55.748;13.194;2022-12-18T01:38:31;-1.40;99.90
11772;DHT22;12556;55.748;13.194;2022-12-18T01:40:58;-1.40;99.90
11772;DHT22;12556;55.748;13.194;2022-12-18T01:43:42;-1.40;99.90
11772;DHT22;12556;55.748;13.194;2022-12-18T01:46:09;-1.40;99.90
11772;DHT22;12556;55.748;13.194;2022-12-18T01:48:37;-1.40;99.90
11772;DHT22;12556;55.748;13.194;2022-12-18T01:51:06;-1.30;99.90
11772;DHT22;12556;55.748;13.194;2022-12-18T01:53:34;-1.30;99.90
11772;DHT22;12556;55.748;13.194;2022-12-18T01:56:00;-1.30;99.90
11772;DHT22;12556;55.748;13.194;2022-12-18T01:58:32;-1.30;99.90
11772;DHT22;12556;55.748;13.194;2022-12-18T02:01:03;-1.30;99.90
11772;DHT22;12556;55.748;13.194;2022-12-18T02:03:30;-1.30;99.90
11772;DHT22;12556;55.748;13.194;2022-12-18T02:06:00;-1.30;99.90
11772;DHT22;12556;55.748;13.194;2022-12-18T02:08:34;-1.30;99.90
11772;DHT22;12556;55.748;13.194;2022-12-18T02:11:06;-1.30;99.90
11772;DHT22;12556;55.748;13.194;2022-12-18T02:13:42;-1.30;99.90
11772;DHT22;12556;55.748;13.194;2022-12-18T02:16:17;-1.30;99.90
11772;DHT22;12556;55.748;13.194;2022-12-18T02:18:49;-1.30;99.90
11772;DHT22;12556;55.748;13.194;2022-12-18T02:21:24;-1.30;99.90
11772;DHT22;12556;55.748;13.194;2022-12-18T02:23:57;-1.20;99.90
11772;DHT22;12556;55.748;13.194;2022-12-18T02:26:34;-1.00;99.90
11772;DHT22;12556;55.748;13.194;2022-12-18T02:29:07;-1.00;99.90
11772;DHT22;12556;55.748;13.194;2022-12-18T02:31:38;-1.00;99.90
11772;DHT22;12556;55.748;13.194;2022-12-18T02:34:08;-1.10;99.90
11772;DHT22;12556;55.748;13.194;2022-12-18T02:36:36;-1.10;99.90
11772;DHT22;12556;55.748;13.194;2022-12-18T02:39:05;-1.10;99.90
11772;DHT22;12556;55.748;13.194;2022-12-18T02:41:35;-1.10;99.90
11772;DHT22;12556;55.748;13.194;2022-12-18T02:44:08;-1.10;99.90
11772;DHT22;12556;55.748;13.194;2022-12-18T02:46:38;-1.10;99.90
11772;DHT22;12556;55.748;13.194;2022-12-18T02:49:12;-1.10;99.90
11772;DHT22;12556;55.748;13.194;2022-12-18T02:51:48;-1.10;99.90
11772;DHT22;12556;55.748;13.194;2022-12-18T02:54:23;-1.10;99.90
11772;DHT22;12556;55.748;13.194;2022-12-18T02:56:57;-1.10;99.90
11772;DHT22;12556;55.748;13.194;2022-12-18T02:59:30;-1.10;99.90
11772;DHT22;12556;55.748;13.194;2022-12-18T03:02:02;-1.10;99.90
11772;DHT22;12556;55.748;13.194;2022-12-18T03:04:36;-0.90;99.90
11772;DHT22;12556;55.748;13.194;2022-12-18T03:07:09;-1.10;99.90
11772;DHT22;12556;55.748;13.194;2022-12-18T03:09:40;-1.00;99.90
11772;DHT22;12556;55.748;13.194;2022-12-18T03:12:11;-1.00;99.90
11772;DHT22;12556;55.748;13.194;2022-12-18T03:14:54;-1.10;99.90
11772;DHT22;12556;55.748;13.194;2022-12-18T03:17:26;-1.00;99.90
11772;DHT22;12556;55.748;13.194;2022-12-18T03:19:56;-1.00;99.90
11772;DHT22;12556;55.748;13.194;2022-12-18T03:22:27;-1.00;99.90
11772;DHT22;12556;55.748;13.194;2022-12-18T03:24:56;-1.00;99.90
11772;DHT22;12556;55.748;13.194;2022-12-18T03:27:26;-1.00;99.90
11772;DHT22;12556;55.748;13.194;2022-12-18T03:30:00;-1.00;99.90
11772;DHT22;12556;55.748;13.194;2022-12-18T03:32:36;-1.00;99.90
11772;DHT22;12556;55.748;13.194;2022-12-18T03:35:06;-1.00;99.90
11772;DHT22;12556;55.748;13.194;2022-12-18T03:37:33;-1.00;99.90
11772;DHT22;12556;55.748;13.194;2022-12-18T03:40:01;-1.00;99.90
11772;DHT22;12556;55.748;13.194;2022-12-18T03:42:35;-1.00;99.90
11772;DHT22;12556;55.748;13.194;2022-12-18T03:45:09;-1.00;99.90
11772;DHT22;12556;55.748;13.194;2022-12-18T03:47:41;-1.00;99.90
11772;DHT22;12556;55.748;13.194;2022-12-18T03:50:16;-0.90;99.90
11772;DHT22;12556;55.748;13.194;2022-12-18T03:52:49;-1.00;99.90
11772;DHT22;12556;55.748;13.194;2022-12-18T03:55:19;-1.00;99.90
11772;DHT22;12556;55.748;13.194;2022-12-18T03:57:51;-0.90;99.90
11772;DHT22;12556;55.748;13.194;2022-12-18T04:00:19;-1.00;99.90
11772;DHT22;12556;55.748;13.194;2022-12-18T04:02:51;-0.90;99.90
11772;DHT22;12556;55.748;13.194;2022-12-18T04:05:18;-0.90;99.90
11772;DHT22;12556;55.748;13.194;2022-12-18T04:07:47;-0.90;99.90
11772;DHT22;12556;55.748;13.194;2022-12-18T04:10:16;-0.80;99.90
11772;DHT22;12556;55.748;13.194;2022-12-18T04:12:43;-0.80;99.90
11772;DHT22;12556;55.748;13.194;2022-12-18T04:15:12;-0.80;99.90
11772;DHT22;12556;55.748;13.194;2022-12-18T04:17:42;-0.80;99.90
11772;DHT22;12556;55.748;13.194;2022-12-18T04:20:10;-0.80;99.90
11772;DHT22;12556;55.748;13.194;2022-12-18T04:22:37;-0.80;99.90
11772;DHT22;12556;55.748;13.194;2022-12-18T04:25:04;-0.70;99.90
11772;DHT22;12556;55.748;13.194;2022-12-18T04:27:31;-0.70;99.90
11772;DHT22;12556;55.748;13.194;2022-12-18T04:29:58;-0.70;99.90
11772;DHT22;12556;55.748;13.194;2022-12-18T04:32:26;-0.60;99.90
11772;DHT22;12556;55.748;13.194;2022-12-18T04:34:53;-0.60;99.90
11772;DHT22;12556;55.748;13.194;2022-12-18T04:37:20;-0.60;99.90
11772;DHT22;12556;55.748;13.194;2022-12-18T04:39:47;-0.60;99.90
11772;DHT22;12556;55.748;13.194;2022-12-18T04:42:14;-0.50;99.90
11772;DHT22;12556;55.748;13.194;2022-12-18T04:44:41;-0.50;99.90
11772;DHT22;12556;55.748;13.194;2022-12-18T04:47:07;-0.50;99.90
11772;DHT22;12556;55.748;13.194;2022-12-18T04:49:36;-0.40;99.90
11772;DHT22;12556;55.748;13.194;2022-12-18T04:52:03;-0.40;99.90
11772;DHT22;12556;55.748;13.194;2022-12-18T04:54:29;-0.40;99.90
11772;DHT22;12556;55.748;13.194;2022-12-18T04:56:56;-0.20;99.90
11772;DHT22;12556;55.748;13.194;2022-12-18T04:59:23;-0.20;99.90
11772;DHT22;12556;55.748;13.194;2022-12-18T05:01:50;-0.20;99.90
11772;DHT22;12556;55.748;13.194;2022-12-18T05:04:17;-0.30;99.90
11772;DHT22;12556;55.748;13.194;2022-12-18T05:06:45;-0.30;99.90
11772;DHT22;12556;55.748;13.194;2022-12-18T05:09:12;-0.30;99.90
11772;DHT22;12556;55.748;13.194;2022-12-18T05:11:39;-0.30;99.90
11772;DHT22;12556;55.748;13.194;2022-12-18T05:14:06;-0.30;99.90
11772;DHT22;12556;55.748;13.194;2022-12-18T05:16:33;-0.30;99.90
11772;DHT22;12556;55.748;13.194;2022-12-18T05:19:00;-0.30;99.90
11772;DHT22;12556;55.748;13.194;2022-12-18T05:21:26;-0.30;99.90
11772;DHT22;12556;55.748;13.194;2022-12-18T05:23:55;-0.30;99.90
11772;DHT22;12556;55.748;13.194;2022-12-18T05:26:21;-0.30;99.90
11772;DHT22;12556;55.748;13.194;2022-12-18T05:28:48;-0.30;99.90
11772;DHT22;12556;55.748;13.194;2022-12-18T05:31:15;-0.30;99.90
11772;DHT22;12556;55.748;13.194;2022-12-18T05:33:42;-0.30;99.90
11772;DHT22;12556;55.748;13.194;2022-12-18T05:36:10;-0.30;99.90
11772;DHT22;12556;55.748;13.194;2022-12-18T05:38:38;-0.30;99.90
11772;DHT22;12556;55.748;13.194;2022-12-18T05:41:07;-0.20;99.90
11772;DHT22;12556;55.748;13.194;2022-12-18T05:43:35;-0.20;99.90
11772;DHT22;12556;55.748;13.194;2022-12-18T05:46:06;-0.20;99.90
11772;DHT22;12556;55.748;13.194;2022-12-18T05:48:33;-0.30;99.90
11772;DHT22;12556;55.748;13.194;2022-12-18T05:51:04;-0.30;99.90
11772;DHT22;12556;55.748;13.194;2022-12-18T05:53:32;-0.30;99.90
11772;DHT22;12556;55.748;13.194;2022-12-18T05:56:00;-0.30;99.90
11772;DHT22;12556;55.748;13.194;2022-12-18T05:58:30;-0.30;99.90
11772;DHT22;12556;55.748;13.194;2022-12-18T06:00:57;-0.30;99.90
11772;DHT22;12556;55.748;13.194;2022-12-18T06:03:24;-0.30;99.90
11772;DHT22;12556;55.748;13.194;2022-12-18T06:05:51;-0.30;99.90
11772;DHT22;12556;55.748;13.194;2022-12-18T06:08:18;-0.30;99.90
11772;DHT22;12556;55.748;13.194;2022-12-18T06:10:50;-0.30;99.90
11772;DHT22;12556;55.748;13.194;2022-12-18T06:13:19;-0.30;99.90
11772;DHT22;12556;55.748;13.194;2022-12-18T06:15:47;-0.20;99.90
11772;DHT22;12556;55.748;13.194;2022-12-18T06:18:14;-0.20;99.90
11772;DHT22;12556;55.748;13.194;2022-12-18T06:20:41;-0.20;99.90
11772;DHT22;12556;55.748;13.194;2022-12-18T06:23:08;-0.20;99.90
11772;DHT22;12556;55.748;13.194;2022-12-18T06:25:38;-0.20;99.90
11772;DHT22;12556;55.748;13.194;2022-12-18T06:28:05;-0.20;99.90
11772;DHT22;12556;55.748;13.194;2022-12-18T06:30:32;-0.20;99.90
11772;DHT22;12556;55.748;13.194;2022-12-18T06:33:00;-0.20;99.90
11772;DHT22;12556;55.748;13.194;2022-12-18T06:35:27;-0.10;99.90
11772;DHT22;12556;55.748;13.194;2022-12-18T06:37:54;-0.10;99.90
11772;DHT22;12556;55.748;13.194;2022-12-18T06:40:21;-0.10;99.90
11772;DHT22;12556;55.748;13.194;2022-12-18T06:42:48;-0.10;99.90
11772;DHT22;12556;55.748;13.194;2022-12-18T06:45:15;-0.10;99.90
11772;DHT22;12556;55.748;13.194;2022-12-18T06:47:44;-0.20;99.90
11772;DHT22;12556;55.748;13.194;2022-12-18T06:50:13;-0.20;99.90
11772;DHT22;12556;55.748;13.194;2022-12-18T06:52:40;-0.20;99.90
11772;DHT22;12556;55.748;13.194;2022-12-18T06:55:10;-0.20;99.90
11772;DHT22;12556;55.748;13.194;2022-12-18T06:57:37;-0.20;99.90
11772;DHT22;12556;55.748;13.194;2022-12-18T07:00:06;-0.20;99.90
11772;DHT22;12556;55.748;13.194;2022-12-18T07:02:33;-0.20;99.90
11772;DHT22;12556;55.748;13.194;2022-12-18T07:05:00;-0.20;99.90
11772;DHT22;12556;55.748;13.194;2022-12-18T07:07:28;-0.20;99.90
11772;DHT22;12556;55.748;13.194;2022-12-18T07:09:55;-0.20;99.90
11772;DHT22;12556;55.748;13.194;2022-12-18T07:12:22;-0.30;99.90
11772;DHT22;12556;55.748;13.194;2022-12-18T07:14:49;-0.20;99.90
11772;DHT22;12556;55.748;13.194;2022-12-18T07:17:16;-0.30;99.90
11772;DHT22;12556;55.748;13.194;2022-12-18T07:19:43;-0.30;99.90
11772;DHT22;12556;55.748;13.194;2022-12-18T07:22:10;-0.30;99.90
11772;DHT22;12556;55.748;13.194;2022-12-18T07:24:38;-0.30;99.90
11772;DHT22;12556;55.748;13.194;2022-12-18T07:27:05;-0.10;99.90
11772;DHT22;12556;55.748;13.194;2022-12-18T07:29:32;-0.10;99.90
11772;DHT22;12556;55.748;13.194;2022-12-18T07:31:58;-0.20;99.90
11772;DHT22;12556;55.748;13.194;2022-12-18T07:34:25;-0.20;99.90
11772;DHT22;12556;55.748;13.194;2022-12-18T07:36:52;-0.10;99.90
11772;DHT22;12556;55.748;13.194;2022-12-18T07:39:19;-0.20;99.90
11772;DHT22;12556;55.748;13.194;2022-12-18T07:41:47;-0.10;99.90
11772;DHT22;12556;55.748;13.194;2022-12-18T07:44:34;-0.10;99.90
11772;DHT22;12556;55.748;13.194;2022-12-18T07:47:01;-0.10;99.90
11772;DHT22;12556;55.748;13.194;2022-12-18T07:49:28;-0.20;99.90
11772;DHT22;12556;55.748;13.194;2022-12-18T07:51:55;-0.10;99.90
11772;DHT22;12556;55.748;13.194;2022-12-18T07:54:23;-0.10;99.90
11772;DHT22;12556;55.748;13.194;2022-12-18T07:56:51;-0.10;99.90
11772;DHT22;12556;55.748;13.194;2022-12-18T07:59:18;-0.10;99.90
11772;DHT22;12556;55.748;13.194;2022-12-18T08:01:45;0.00;99.90
11772;DHT22;12556;55.748;13.194;2022-12-18T08:04:12;0.00;99.90
11772;DHT22;12556;55.748;13.194;2022-12-18T08:06:39;0.00;99.90
11772;DHT22;12556;55.748;13.194;2022-12-18T08:09:06;0.00;99.90
11772;DHT22;12556;55.748;13.194;2022-12-18T08:11:34;0.10;99.90
11772;DHT22;12556;55.748;13.194;2022-12-18T08:14:02;0.10;99.90
11772;DHT22;12556;55.748;13.194;2022-12-18T08:16:29;0.10;99.90
11772;DHT22;12556;55.748;13.194;2022-12-18T08:18:57;0.10;99.90
11772;DHT22;12556;55.748;13.194;2022-12-18T08:21:26;0.20;99.90
11772;DHT22;12556;55.748;13.194;2022-12-18T08:23:55;0.20;99.90
11772;DHT22;12556;55.748;13.194;2022-12-18T08:26:24;0.20;99.90
11772;DHT22;12556;55.748;13.194;2022-12-18T08:28:53;0.30;99.90
11772;DHT22;12556;55.748;13.194;2022-12-18T08:31:21;0.30;99.90
11772;DHT22;12556;55.748;13.194;2022-12-18T08:33:50;0.30;99.90
11772;DHT22;12556;55.748;13.194;2022-12-18T08:36:18;0.40;99.90
11772;DHT22;12556;55.748;13.194;2022-12-18T08:38:45;0.40;99.90
11772;DHT22;12556;55.748;13.194;2022-12-18T08:41:14;0.40;99.90
11772;DHT22;12556;55.748;13.194;2022-12-18T08:43:41;0.50;99.90
11772;DHT22;12556;55.748;13.194;2022-12-18T08:46:37;0.50;99.90
11772;DHT22;12556;55.748;13.194;2022-12-18T08:49:05;0.50;99.90
11772;DHT22;12556;55.748;13.194;2022-12-18T08:51:32;0.50;99.90
11772;DHT22;12556;55.748;13.194;2022-12-18T08:53:59;0.60;99.90
11772;DHT22;12556;55.748;13.194;2022-12-18T08:56:26;0.60;99.90
11772;DHT22;12556;55.748;13.194;2022-12-18T08:58:53;0.60;99.90
11772;DHT22;12556;55.748;13.194;2022-12-18T09:01:21;0.60;99.90
11772;DHT22;12556;55.748;13.194;2022-12-18T09:03:50;0.70;99.90
11772;DHT22;12556;55.748;13.194;2022-12-18T09:06:19;0.70;99.90
11772;DHT22;12556;55.748;13.194;2022-12-18T09:08:47;0.70;99.90
11772;DHT22;12556;55.748;13.194;2022-12-18T09:11:15;0.80;99.90
11772;DHT22;12556;55.748;13.194;2022-12-18T09:13:45;0.90;99.90
11772;DHT22;12556;55.748;13.194;2022-12-18T09:16:12;0.90;99.90
11772;DHT22;12556;55.748;13.194;2022-12-18T09:18:39;0.90;99.90
11772;DHT22;12556;55.748;13.194;2022-12-18T09:21:11;1.00;99.90
11772;DHT22;12556;55.748;13.194;2022-12-18T09:23:39;1.00;99.90
11772;DHT22;12556;55.748;13.194;2022-12-18T09:26:07;1.10;99.90
11772;DHT22;12556;55.748;13.194;2022-12-18T09:28:34;1.30;99.90
11772;DHT22;12556;55.748;13.194;2022-12-18T09:31:04;1.10;99.90
11772;DHT22;12556;55.748;13.194;2022-12-18T09:33:32;1.10;99.90
11772;DHT22;12556;55.748;13.194;2022-12-18T09:36:01;1.20;99.90
11772;DHT22;12556;55.748;13.194;2022-12-18T09:38:29;1.20;99.90
11772;DHT22;12556;55.748;13.194;2022-12-18T09:40:59;1.20;99.90
11772;DHT22;12556;55.748;13.194;2022-12-18T09:43:30;1.20;99.90
11772;DHT22;12556;55.748;13.194;2022-12-18T09:46:01;1.20;99.90
11772;DHT22;12556;55.748;13.194;2022-12-18T09:48:31;1.20;99.90
11772;DHT22;12556;55.748;13.194;2022-12-18T09:51:02;1.30;99.90
11772;DHT22;12556;55.748;13.194;2022-12-18T09:53:35;1.30;99.90
11772;DHT22;12556;55.748;13.194;2022-12-18T09:56:04;1.30;99.90
11772;DHT22;12556;55.748;13.194;2022-12-18T09:58:35;1.30;99.90
11772;DHT22;12556;55.748;13.194;2022-12-18T10:01:06;1.30;99.90
11772;DHT22;12556;55.748;13.194;2022-12-18T10:03:36;1.30;99.90
11772;DHT22;12556;55.748;13.194;2022-12-18T10:06:12;1.30;99.90
11772;DHT22;12556;55.748;13.194;2022-12-18T10:08:46;1.30;99.90
11772;DHT22;12556;55.748;13.194;2022-12-18T10:11:27;1.30;99.90
11772;DHT22;12556;55.748;13.194;2022-12-18T10:13:58;1.20;99.90
11772;DHT22;12556;55.748;13.194;2022-12-18T10:16:29;1.20;99.90
11772;DHT22;12556;55.748;13.194;2022-12-18T10:19:08;1.20;99.90
11772;DHT22;12556;55.748;13.194;2022-12-18T10:21:41;1.20;99.90
11772;DHT22;12556;55.748;13.194;2022-12-18T10:24:20;0.80;99.90
11772;DHT22;12556;55.748;13.194;2022-12-18T10:26:52;1.10;99.90
11772;DHT22;12556;55.748;13.194;2022-12-18T10:29:20;1.10;99.90
11772;DHT22;12556;55.748;13.194;2022-12-18T10:31:47;1.10;99.90
11772;DHT22;12556;55.748;13.194;2022-12-18T10:34:13;1.10;99.90
11772;DHT22;12556;55.748;13.194;2022-12-18T10:36:40;1.00;99.90
11772;DHT22;12556;55.748;13.194;2022-12-18T10:39:19;1.00;99.90
11772;DHT22;12556;55.748;13.194;2022-12-18T10:41:47;0.90;99.90
11772;DHT22;12556;55.748;13.194;2022-12-18T10:44:18;0.90;99.90
11772;DHT22;12556;55.748;13.194;2022-12-18T10:46:46;0.90;99.90
11772;DHT22;12556;55.748;13.194;2022-12-18T10:49:25;0.90;99.90
11772;DHT22;12556;55.748;13.194;2022-12-18T10:52:05;1.00;99.90
11772;DHT22;12556;55.748;13.194;2022-12-18T10:54:35;1.20;99.90
11772;DHT22;12556;55.748;13.194;2022-12-18T10:57:27;1.20;99.90
11772;DHT22;12556;55.748;13.194;2022-12-18T10:59:57;1.30;99.90
11772;DHT22;12556;55.748;13.194;2022-12-18T11:02:27;1.40;99.90
11772;DHT22;12556;55.748;13.194;2022-12-18T11:04:54;1.40;99.90
11772;DHT22;12556;55.748;13.194;2022-12-18T11:07:21;1.50;99.90
11772;DHT22;12556;55.748;13.194;2022-12-18T11:10:00;1.60;99.90
11772;DHT22;12556;55.748;13.194;2022-12-18T11:12:28;1.60;99.90
11772;DHT22;12556;55.748;13.194;2022-12-18T11:14:56;1.50;99.90
11772;DHT22;12556;55.748;13.194;2022-12-18T11:17:28;1.60;99.90
11772;DHT22;12556;55.748;13.194;2022-12-18T11:19:57;1.60;99.90
11772;DHT22;12556;55.748;13.194;2022-12-18T11:22:26;1.60;99.90
11772;DHT22;12556;55.748;13.194;2022-12-18T11:24:57;1.60;99.90
11772;DHT22;12556;55.748;13.194;2022-12-18T11:27:25;1.70;99.90
11772;DHT22;12556;55.748;13.194;2022-12-18T11:29:52;1.80;99.90
11772;DHT22;12556;55.748;13.194;2022-12-18T11:32:34;1.80;99.90
11772;DHT22;12556;55.748;13.194;2022-12-18T11:35:13;1.70;99.90
11772;DHT22;12556;55.748;13.194;2022-12-18T11:37:43;1.70;99.90
11772;DHT22;12556;55.748;13.194;2022-12-18T11:40:17;1.70;99.90
11772;DHT22;12556;55.748;13.194;2022-12-18T11:42:49;1.60;99.90
11772;DHT22;12556;55.748;13.194;2022-12-18T11:45:31;1.60;99.90
11772;DHT22;12556;55.748;13.194;2022-12-18T11:48:04;1.50;99.90
11772;DHT22;12556;55.748;13.194;2022-12-18T11:50:45;1.50;99.90
11772;DHT22;12556;55.748;13.194;2022-12-18T11:53:13;1.20;99.90
11772;DHT22;12556;55.748;13.194;2022-12-18T11:55:47;1.50;99.90
11772;DHT22;12556;55.748;13.194;2022-12-18T11:58:22;1.40;99.90
11772;DHT22;12556;55.748;13.194;2022-12-18T12:00:59;1.40;99.90
11772;DHT22;12556;55.748;13.194;2022-12-18T12:03:50;1.30;99.90
11772;DHT22;12556;55.748;13.194;2022-12-18T12:06:24;1.30;99.90
11772;DHT22;12556;55.748;13.194;2022-12-18T12:09:01;1.20;99.90
11772;DHT22;12556;55.748;13.194;2022-12-18T12:11:39;1.20;99.90
11772;DHT22;12556;55.748;13.194;2022-12-18T12:14:17;1.20;99.90
11772;DHT22;12556;55.748;13.194;2022-12-18T12:16:50;1.20;99.90
11772;DHT22;12556;55.748;13.194;2022-12-18T12:19:30;1.10;99.90
11772;DHT22;12556;55.748;13.194;2022-12-18T12:22:03;1.10;99.90
11772;DHT22;12556;55.748;13.194;2022-12-18T12:24:42;1.10;99.90
11772;DHT22;12556;55.748;13.194;2022-12-18T12:27:19;1.10;99.90
11772;DHT22;12556;55.748;13.194;2022-12-18T12:29:55;1.00;99.90
11772;DHT22;12556;55.748;13.194;2022-12-18T12:32:38;1.00;99.90
11772;DHT22;12556;55.748;13.194;2022-12-18T12:35:16;1.00;99.90
11772;DHT22;12556;55.748;13.194;2022-12-18T12:37:55;1.00;99.90
11772;DHT22;12556;55.748;13.194;2022-12-18T12:40:28;1.00;99.90
11772;DHT22;12556;55.748;13.194;2022-12-18T12:43:00;1.00;99.90
11772;DHT22;12556;55.748;13.194;2022-12-18T12:45:43;1.00;99.90
11772;DHT22;12556;55.748;13.194;2022-12-18T12:48:17;1.00;99.90
11772;DHT22;12556;55.748;13.194;2022-12-18T12:50:46;1.00;99.90
11772;DHT22;12556;55.748;13.194;2022-12-18T12:53:20;1.00;99.90
11772;DHT22;12556;55.748;13.194;2022-12-18T12:55:48;1.00;99.90
11772;DHT22;12556;55.748;13.194;2022-12-18T12:58:21;1.00;99.90
11772;DHT22;12556;55.748;13.194;2022-12-18T13:00:54;0.90;99.90
11772;DHT22;12556;55.748;13.194;2022-12-18T13:03:32;0.90;99.90
11772;DHT22;12556;55.748;13.194;2022-12-18T13:06:05;0.90;99.90
11772;DHT22;12556;55.748;13.194;2022-12-18T13:08:54;0.90;99.90
11772;DHT22;12556;55.748;13.194;2022-12-18T13:11:35;0.80;99.90
11772;DHT22;12556;55.748;13.194;2022-12-18T13:14:27;0.80;99.90
11772;DHT22;12556;55.748;13.194;2022-12-18T13:17:27;0.80;99.90
11772;DHT22;12556;55.748;13.194;2022-12-18T13:20:04;0.80;99.90
11772;DHT22;12556;55.748;13.194;2022-12-18T13:22:35;0.70;99.90
11772;DHT22;12556;55.748;13.194;2022-12-18T13:25:02;0.70;99.90
11772;DHT22;12556;55.748;13.194;2022-12-18T13:27:58;0.70;99.90
11772;DHT22;12556;55.748;13.194;2022-12-18T13:30:49;0.60;99.90
11772;DHT22;12556;55.748;13.194;2022-12-18T13:33:49;0.60;99.90
11772;DHT22;12556;55.748;13.194;2022-12-18T13:36:32;0.60;99.90
11772;DHT22;12556;55.748;13.194;2022-12-18T13:39:24;0.60;99.90
11772;DHT22;12556;55.748;13.194;2022-12-18T13:41:53;0.60;99.90
11772;DHT22;12556;55.748;13.194;2022-12-18T13:44:31;0.50;99.90
11772;DHT22;12556;55.748;13.194;2022-12-18T13:47:00;0.50;99.90
11772;DHT22;12556;55.748;13.194;2022-12-18T13:49:35;0.50;99.90
11772;DHT22;12556;55.748;13.194;2022-12-18T13:52:03;0.50;99.90
11772;DHT22;12556;55.748;13.194;2022-12-18T13:54:42;0.50;99.90
11772;DHT22;12556;55.748;13.194;2022-12-18T13:57:26;0.40;99.90
11772;DHT22;12556;55.748;13.194;2022-12-18T13:59:53;0.40;99.90
11772;DHT22;12556;55.748;13.194;2022-12-18T14:02:23;0.30;99.90
11772;DHT22;12556;55.748;13.194;2022-12-18T14:04:51;0.30;99.90
11772;DHT22;12556;55.748;13.194;2022-12-18T14:07:20;1.40;99.90
11772;DHT22;12556;55.748;13.194;2022-12-18T14:09:50;0.30;99.90
11772;DHT22;12556;55.748;13.194;2022-12-18T14:12:20;1.00;99.90
11772;DHT22;12556;55.748;13.194;2022-12-18T14:15:09;0.20;99.90
11772;DHT22;12556;55.748;13.194;2022-12-18T14:17:44;0.20;99.90
11772;DHT22;12556;55.748;13.194;2022-12-18T14:20:13;0.20;99.90
11772;DHT22;12556;55.748;13.194;2022-12-18T14:22:43;0.20;99.90
11772;DHT22;12556;55.748;13.194;2022-12-18T14:25:21;0.10;99.90
11772;DHT22;12556;55.748;13.194;2022-12-18T14:27:50;0.10;99.90
11772;DHT22;12556;55.748;13.194;2022-12-18T14:30:25;0.10;99.90
11772;DHT22;12556;55.748;13.194;2022-12-18T14:33:02;0.10;99.90
11772;DHT22;12556;55.748;13.194;2022-12-18T14:35:29;0.10;99.90
11772;DHT22;12556;55.748;13.194;2022-12-18T14:38:10;0.00;99.90
11772;DHT22;12556;55.748;13.194;2022-12-18T14:40:37;0.00;99.90
11772;DHT22;12556;55.748;13.194;2022-12-18T14:43:04;0.00;99.90
11772;DHT22;12556;55.748;13.194;2022-12-18T14:45:35;0.00;99.90
11772;DHT22;12556;55.748;13.194;2022-12-18T14:48:08;-0.10;99.90
11772;DHT22;12556;55.748;13.194;2022-12-18T14:50:35;-0.10;99.90
11772;DHT22;12556;55.748;13.194;2022-12-18T14:53:02;-0.10;99.90
11772;DHT22;12556;55.748;13.194;2022-12-18T14:55:29;-0.10;99.90
11772;DHT22;12556;55.748;13.194;2022-12-18T14:57:56;0.70;99.90
11772;DHT22;12556;55.748;13.194;2022-12-18T15:00:25;-0.20;99.90
11772;DHT22;12556;55.748;13.194;2022-12-18T15:02:54;-0.20;99.90
11772;DHT22;12556;55.748;13.194;2022-12-18T15:05:26;-0.20;99.90
11772;DHT22;12556;55.748;13.194;2022-12-18T15:07:55;-0.30;99.90
11772;DHT22;12556;55.748;13.194;2022-12-18T15:10:24;-0.30;99.90
11772;DHT22;12556;55.748;13.194;2022-12-18T15:13:08;-0.30;99.90
11772;DHT22;12556;55.748;13.194;2022-12-18T15:15:46;-0.30;99.90
11772;DHT22;12556;55.748;13.194;2022-12-18T15:18:15;-0.40;99.90
11772;DHT22;12556;55.748;13.194;2022-12-18T15:20:46;-0.40;99.90
11772;DHT22;12556;55.748;13.194;2022-12-18T15:23:19;-0.50;99.90
11772;DHT22;12556;55.748;13.194;2022-12-18T15:25:48;-0.50;99.90
11772;DHT22;12556;55.748;13.194;2022-12-18T15:28:23;-0.50;99.90
11772;DHT22;12556;55.748;13.194;2022-12-18T15:31:06;-0.50;99.90
11772;DHT22;12556;55.748;13.194;2022-12-18T15:33:34;-0.50;99.90
11772;DHT22;12556;55.748;13.194;2022-12-18T15:36:07;-0.50;99.90
11772;DHT22;12556;55.748;13.194;2022-12-18T15:38:34;-0.50;99.90
11772;DHT22;12556;55.748;13.194;2022-12-18T15:41:02;-0.60;99.90
11772;DHT22;12556;55.748;13.194;2022-12-18T15:43:29;-0.60;99.90
11772;DHT22;12556;55.748;13.194;2022-12-18T15:46:03;-0.60;99.90